createdAt,value
2016-12-18T14:53:39.222Z,1021.53
2016-12-18T14:54:39.405Z,1021.52
2016-12-18T14:55:39.301Z,1021.49
2016-12-18T14:56:39.339Z,1021.52
2016-12-18T14:57:39.782Z,1021.5
2016-12-18T14:58:39.218Z,1021.48
2016-12-18T14:59:39.449Z,1021.46
2016-12-18T15:00:39.348Z,1021.4
2016-12-18T15:01:39.609Z,1021.45
2016-12-18T15:02:39.548Z,1021.47
2016-12-18T15:03:39.441Z,1021.52
2016-12-18T15:04:39.574Z,1021.54
2016-12-18T15:05:39.506Z,1021.56
2016-12-18T15:06:39.488Z,1021.51
2016-12-18T15:07:39.524Z,1021.52
2016-12-18T15:08:40.404Z,1021.51
2016-12-18T15:09:39.469Z,1021.46
2016-12-18T15:10:39.511Z,1021.43
2016-12-18T15:11:40.036Z,1021.42
2016-12-18T15:12:39.519Z,1021.44
2016-12-18T15:13:39.560Z,1021.42
2016-12-18T15:14:39.746Z,1021.42
2016-12-18T15:15:39.591Z,1021.44
2016-12-18T15:16:39.481Z,1021.38
2016-12-18T15:17:39.769Z,1021.39
2016-12-18T15:18:39.554Z,1021.41
2016-12-18T15:19:39.558Z,1021.47
2016-12-18T15:20:39.899Z,1021.46
2016-12-18T15:21:39.598Z,1021.4
2016-12-18T15:22:39.619Z,1021.43
2016-12-18T15:23:40.043Z,1021.43
2016-12-18T15:24:39.587Z,1021.41
2016-12-18T15:25:40.078Z,1021.37
2016-12-18T15:26:39.756Z,1021.39
2016-12-18T15:27:39.802Z,1021.39
2016-12-18T15:28:40.056Z,1021.39
2016-12-18T15:29:40.195Z,1021.43
2016-12-18T15:30:40.345Z,1021.36
2016-12-18T15:31:40.616Z,1021.36
2016-12-18T15:32:40.016Z,1021.38
2016-12-18T15:33:40.258Z,1021.39
2016-12-18T15:34:39.857Z,1021.41
2016-12-18T15:35:40.066Z,1021.41
2016-12-18T15:36:40.149Z,1021.38
2016-12-18T15:37:40.332Z,1021.32
2016-12-18T15:38:40.713Z,1021.25
2016-12-18T15:39:40.317Z,1021.23
2016-12-18T15:40:40.514Z,1021.23
2016-12-18T15:41:40.497Z,1021.22
2016-12-18T15:42:40.619Z,1021.23
2016-12-18T15:43:40.645Z,1021.26
2016-12-18T15:44:40.241Z,1021.25
2016-12-18T15:45:40.174Z,1021.24
2016-12-18T15:46:40.237Z,1021.23
2016-12-18T15:47:40.581Z,1021.28
2016-12-18T15:48:40.325Z,1021.32
2016-12-18T15:49:40.426Z,1021.31
2016-12-18T15:50:40.287Z,1021.3
2016-12-18T15:51:40.501Z,1021.27
2016-12-18T15:52:40.515Z,1021.24
2016-12-18T15:53:40.295Z,1021.23
2016-12-18T15:54:40.596Z,1021.24
2016-12-18T15:55:40.446Z,1021.23
2016-12-18T15:56:41.170Z,1021.26
2016-12-18T15:57:40.954Z,1021.32
2016-12-18T15:58:40.535Z,1021.29
2016-12-18T15:59:40.353Z,1021.29
2016-12-18T16:00:41.432Z,1021.28
2016-12-18T16:01:40.447Z,1021.32
2016-12-18T16:02:40.453Z,1021.35
2016-12-18T16:03:40.672Z,1021.34
2016-12-18T16:04:40.222Z,1021.37
2016-12-18T16:05:40.910Z,1021.42
2016-12-18T16:06:40.410Z,1021.4
2016-12-18T16:07:40.626Z,1021.46
2016-12-18T16:08:40.411Z,1021.39
2016-12-18T16:09:40.426Z,1021.41
2016-12-18T16:10:40.414Z,1021.38
2016-12-18T16:11:40.375Z,1021.35
2016-12-18T16:12:40.558Z,1021.33
2016-12-18T16:13:41.083Z,1021.34
2016-12-18T16:14:40.517Z,1021.24
2016-12-18T16:15:40.719Z,1021.26
2016-12-18T16:16:40.672Z,1021.27
2016-12-18T16:17:40.749Z,1021.24
2016-12-18T16:18:40.473Z,1021.21
2016-12-18T16:19:40.581Z,1021.23
2016-12-18T16:20:40.540Z,1021.25
2016-12-18T16:21:40.583Z,1021.24
2016-12-18T16:22:41.248Z,1021.21
2016-12-18T16:23:40.642Z,1021.24
2016-12-18T16:24:40.780Z,1021.22
2016-12-18T16:25:40.612Z,1021.22
2016-12-18T16:26:40.821Z,1021.25
2016-12-18T16:27:40.838Z,1021.29
2016-12-18T16:28:41.085Z,1021.28
2016-12-18T16:29:40.778Z,1021.25
2016-12-18T16:30:40.886Z,1021.31
2016-12-18T16:31:40.999Z,1021.35
2016-12-18T16:32:40.792Z,1021.36
2016-12-18T16:33:40.897Z,1021.34
2016-12-18T16:34:41.029Z,1021.32
2016-12-18T16:35:40.809Z,1021.31
2016-12-18T16:36:41.160Z,1021.34
2016-12-18T16:37:40.900Z,1021.33
2016-12-18T16:38:40.957Z,1021.32
2016-12-18T16:39:41.409Z,1021.31
2016-12-18T16:40:40.842Z,1021.29
2016-12-18T16:41:40.966Z,1021.26
2016-12-18T16:42:41.031Z,1021.25
2016-12-18T16:43:40.963Z,1021.21
2016-12-18T16:44:40.981Z,1021.21
2016-12-18T16:45:40.944Z,1021.2
2016-12-18T16:46:41.097Z,1021.19
2016-12-18T16:47:40.942Z,1021.2
2016-12-18T16:48:40.925Z,1021.22
2016-12-18T16:49:41.282Z,1021.22
2016-12-18T16:50:40.948Z,1021.25
2016-12-18T16:51:41.044Z,1021.23
2016-12-18T16:52:41.075Z,1021.25
2016-12-18T16:53:41.131Z,1021.27
2016-12-18T16:54:41.210Z,1021.28
2016-12-18T16:55:41.015Z,1021.28
2016-12-18T16:56:41.249Z,1021.26
2016-12-18T16:57:42.094Z,1021.24
2016-12-18T16:58:41.200Z,1021.25
2016-12-18T16:59:41.237Z,1021.27
2016-12-18T17:00:41.439Z,1021.27
2016-12-18T17:01:41.323Z,1021.24
2016-12-18T17:02:42.430Z,1021.28
2016-12-18T17:03:41.297Z,1021.29
2016-12-18T17:04:41.417Z,1021.27
2016-12-18T17:05:41.332Z,1021.28
2016-12-18T17:06:41.372Z,1021.37
2016-12-18T17:07:41.725Z,1021.33
2016-12-18T17:08:41.361Z,1021.3
2016-12-18T17:09:41.720Z,1021.24
2016-12-18T17:10:41.389Z,1021.27
2016-12-18T17:11:41.371Z,1021.21
2016-12-18T17:12:41.451Z,1021.2
2016-12-18T17:13:41.729Z,1021.2
2016-12-18T17:14:42.059Z,1021.19
2016-12-18T17:15:41.873Z,1021.21
2016-12-18T17:16:41.858Z,1021.19
2016-12-18T17:17:41.727Z,1021.2
2016-12-18T17:19:41.408Z,1021.2
2016-12-18T17:20:41.407Z,1021.2
2016-12-18T17:21:41.450Z,1021.14
2016-12-18T17:22:41.469Z,1021.11
2016-12-18T17:23:41.480Z,1021.09
2016-12-18T17:24:41.873Z,1021.12
2016-12-18T17:25:41.954Z,1021.09
2016-12-18T17:26:41.706Z,1021.09
2016-12-18T17:27:41.935Z,1021.03
2016-12-18T17:28:41.648Z,1021.02
2016-12-18T17:29:42.254Z,1020.99
2016-12-18T17:30:42.654Z,1020.97
2016-12-18T17:31:41.642Z,1020.9
2016-12-18T17:32:42.567Z,1020.93
2016-12-18T17:33:41.927Z,1020.94
2016-12-18T17:34:42.128Z,1020.95
2016-12-18T17:35:42.017Z,1020.97
2016-12-18T17:36:41.844Z,1020.97
2016-12-18T17:37:42.135Z,1020.95
2016-12-18T17:38:41.806Z,1020.94
2016-12-18T17:39:41.969Z,1020.93
2016-12-18T17:40:42.235Z,1020.92
2016-12-18T17:41:41.909Z,1020.97
2016-12-18T17:42:42.091Z,1020.94
2016-12-18T17:43:42.031Z,1020.99
2016-12-18T17:44:42.087Z,1020.98
2016-12-18T17:45:42.303Z,1020.98
2016-12-18T17:46:42.044Z,1020.97
2016-12-18T17:47:41.961Z,1020.98
2016-12-18T17:48:41.855Z,1020.93
2016-12-18T17:49:41.956Z,1020.9
2016-12-18T17:50:42.477Z,1020.94
2016-12-18T17:51:42.085Z,1021
2016-12-18T17:52:42.003Z,1020.98
2016-12-18T17:53:42.232Z,1020.96
2016-12-18T17:55:41.980Z,1020.98
2016-12-18T17:57:42.161Z,1020.96
2016-12-18T17:58:42.339Z,1020.98
2016-12-18T17:59:43.111Z,1020.96
2016-12-18T18:00:42.947Z,1020.98
2016-12-18T18:01:42.144Z,1020.92
2016-12-18T18:02:42.838Z,1020.94
2016-12-18T18:03:42.130Z,1020.96
2016-12-18T18:04:42.861Z,1021
2016-12-18T18:05:42.369Z,1020.99
2016-12-18T18:06:42.960Z,1020.94
2016-12-18T18:07:42.750Z,1020.95
2016-12-18T18:08:42.547Z,1020.99
2016-12-18T18:09:42.271Z,1020.98
2016-12-18T18:10:42.370Z,1020.98
2016-12-18T18:11:43.540Z,1020.98
2016-12-18T18:12:42.468Z,1020.98
2016-12-18T18:13:42.509Z,1020.96
2016-12-18T18:14:42.600Z,1020.96
2016-12-18T18:15:42.659Z,1021.02
2016-12-18T18:16:42.713Z,1021.02
2016-12-18T18:17:42.623Z,1021.03
2016-12-18T18:18:42.709Z,1021.03
2016-12-18T18:19:42.428Z,1021.07
2016-12-18T18:20:42.585Z,1021.06
2016-12-18T18:21:42.372Z,1021.09
2016-12-18T18:22:42.310Z,1021.1
2016-12-18T18:23:42.730Z,1021.09
2016-12-18T18:24:42.652Z,1021.08
2016-12-18T18:25:42.827Z,1021.09
2016-12-18T18:26:43.142Z,1021.09
2016-12-18T18:27:42.691Z,1021.09
2016-12-18T18:28:42.921Z,1021.12
2016-12-18T18:29:42.349Z,1021.12
2016-12-18T18:32:42.778Z,1021.05
2016-12-18T18:33:42.377Z,1021.03
2016-12-18T18:34:42.545Z,1020.96
2016-12-18T18:35:42.823Z,1021.02
2016-12-18T18:36:42.704Z,1020.99
2016-12-18T18:37:42.734Z,1020.96
2016-12-18T18:39:42.896Z,1020.91
2016-12-18T18:40:42.781Z,1020.94
2016-12-18T18:41:43.090Z,1020.91
2016-12-18T18:42:43.115Z,1020.91
2016-12-18T18:43:43.196Z,1020.95
2016-12-18T18:44:42.678Z,1020.91
2016-12-18T18:45:42.785Z,1020.93
2016-12-18T18:46:43.275Z,1020.9
2016-12-18T18:47:42.718Z,1020.88
2016-12-18T18:49:49.586Z,1020.86
2016-12-18T18:50:42.682Z,1020.89
2016-12-18T18:51:42.925Z,1020.86
2016-12-18T18:52:43.251Z,1020.88
2016-12-18T18:53:42.831Z,1020.86
2016-12-18T18:54:42.834Z,1020.84
2016-12-18T18:55:42.946Z,1020.86
2016-12-18T18:56:43.004Z,1020.92
2016-12-18T18:57:43.283Z,1020.9
2016-12-18T18:58:43.342Z,1020.93
2016-12-18T18:59:43.307Z,1020.92
2016-12-18T19:00:43.027Z,1020.97
2016-12-18T19:01:43.081Z,1020.94
2016-12-18T19:02:43.137Z,1020.96
2016-12-18T19:03:43.250Z,1020.94
2016-12-18T19:04:43.313Z,1020.98
2016-12-18T19:05:43.478Z,1020.96
2016-12-18T19:06:43.836Z,1020.96
2016-12-18T19:07:43.569Z,1020.95
2016-12-18T19:08:43.361Z,1020.95
2016-12-18T19:09:43.456Z,1020.93
2016-12-18T19:10:43.251Z,1020.94
2016-12-18T19:11:43.544Z,1020.93
2016-12-18T19:12:44.068Z,1020.92
2016-12-18T19:13:43.558Z,1020.95
2016-12-18T19:14:43.438Z,1020.94
2016-12-18T19:15:43.014Z,1020.9
2016-12-18T19:16:43.210Z,1020.92
2016-12-18T19:17:43.198Z,1020.96
2016-12-18T19:18:43.928Z,1020.96
2016-12-18T19:19:43.344Z,1020.97
2016-12-18T19:20:43.212Z,1020.95
2016-12-18T19:21:43.163Z,1020.94
2016-12-18T19:22:43.176Z,1020.92
2016-12-18T19:23:43.526Z,1020.94
2016-12-18T19:24:43.664Z,1020.92
2016-12-18T19:25:43.573Z,1020.93
2016-12-18T19:26:43.268Z,1020.96
2016-12-18T19:27:43.623Z,1020.95
2016-12-18T19:28:43.888Z,1020.91
2016-12-18T19:29:43.592Z,1020.95
2016-12-18T19:30:43.508Z,1020.93
2016-12-18T19:31:43.896Z,1020.91
2016-12-18T19:32:43.739Z,1020.93
2016-12-18T19:33:43.530Z,1020.92
2016-12-18T19:34:43.752Z,1020.92
2016-12-18T19:35:44.327Z,1020.95
2016-12-18T19:36:43.660Z,1020.97
2016-12-18T19:37:43.623Z,1020.97
2016-12-18T19:38:43.744Z,1020.94
2016-12-18T19:39:43.560Z,1020.94
2016-12-18T19:40:43.353Z,1020.89
2016-12-18T19:41:43.937Z,1020.93
2016-12-18T19:42:43.877Z,1020.93
2016-12-18T19:43:44.162Z,1020.95
2016-12-18T19:44:44.181Z,1020.94
2016-12-18T19:45:43.878Z,1020.95
2016-12-18T19:46:43.891Z,1020.94
2016-12-18T19:47:44.295Z,1020.92
2016-12-18T19:48:43.661Z,1020.94
2016-12-18T19:49:44.670Z,1020.92
2016-12-18T19:50:44.158Z,1020.92
2016-12-18T19:51:43.870Z,1020.9
2016-12-18T19:52:43.837Z,1020.91
2016-12-18T19:53:44.646Z,1020.91
2016-12-18T19:54:44.069Z,1020.94
2016-12-18T19:55:44.251Z,1020.94
2016-12-18T19:56:44.147Z,1020.94
2016-12-18T19:57:43.801Z,1020.97
2016-12-18T19:58:44.294Z,1020.93
2016-12-18T19:59:43.958Z,1020.96
2016-12-18T20:00:44.714Z,1020.96
2016-12-18T20:01:44.443Z,1020.91
2016-12-18T20:02:44.036Z,1020.94
2016-12-18T20:03:43.928Z,1020.95
2016-12-18T20:04:44.344Z,1020.93
2016-12-18T20:05:43.893Z,1020.9
2016-12-18T20:06:44.504Z,1020.94
2016-12-18T20:07:44.492Z,1020.93
2016-12-18T20:08:44.197Z,1020.91
2016-12-18T20:09:44.368Z,1020.91
2016-12-18T20:10:44.044Z,1020.91
2016-12-18T20:11:44.007Z,1020.89
2016-12-18T20:12:44.672Z,1020.88
2016-12-18T20:13:44.950Z,1020.88
2016-12-18T20:14:44.242Z,1020.87
2016-12-18T20:15:44.220Z,1020.91
2016-12-18T20:16:44.143Z,1020.87
2016-12-18T20:17:44.519Z,1020.88
2016-12-18T20:18:44.539Z,1020.89
2016-12-18T20:19:44.280Z,1020.84
2016-12-18T20:20:44.277Z,1020.85
2016-12-18T20:21:44.135Z,1020.83
2016-12-18T20:22:44.529Z,1020.87
2016-12-18T20:23:44.243Z,1020.89
2016-12-18T20:24:44.313Z,1020.91
2016-12-18T20:25:44.279Z,1020.96
2016-12-18T20:26:44.319Z,1020.94
2016-12-18T20:27:44.799Z,1021
2016-12-18T20:28:45.140Z,1021.03
2016-12-18T20:29:44.605Z,1021.05
2016-12-18T20:30:44.614Z,1021.06
2016-12-18T20:31:44.308Z,1021.02
2016-12-18T20:32:44.388Z,1021.01
2016-12-18T20:33:45.119Z,1021.01
2016-12-18T20:34:44.649Z,1021.02
2016-12-18T20:35:44.595Z,1021.05
2016-12-18T20:36:44.852Z,1021.06
2016-12-18T20:37:44.423Z,1021.02
2016-12-18T20:38:45.041Z,1021.07
2016-12-18T20:39:44.423Z,1021.07
2016-12-18T20:40:44.340Z,1021.06
2016-12-18T20:41:44.527Z,1021.08
2016-12-18T20:42:44.375Z,1021.04
2016-12-18T20:43:44.691Z,1021.11
2016-12-18T20:44:44.852Z,1021.09
2016-12-18T20:45:44.282Z,1021.12
2016-12-18T20:46:44.449Z,1021.13
2016-12-18T20:47:44.557Z,1021.11
2016-12-18T20:48:44.532Z,1021.14
2016-12-18T20:49:44.531Z,1021.09
2016-12-18T20:50:44.501Z,1021.09
2016-12-18T20:51:44.527Z,1021.04
2016-12-18T20:52:44.542Z,1021.03
2016-12-18T20:53:44.710Z,1021.03
2016-12-18T20:54:44.576Z,1021.06
2016-12-18T20:55:44.473Z,1021.01
2016-12-18T20:56:44.550Z,1020.99
2016-12-18T20:57:44.470Z,1020.98
2016-12-18T20:58:44.546Z,1020.96
2016-12-18T20:59:44.783Z,1020.94
2016-12-18T21:00:44.700Z,1020.94
2016-12-18T21:01:44.602Z,1020.95
2016-12-18T21:02:44.662Z,1020.96
2016-12-18T21:03:44.724Z,1020.97
2016-12-18T21:04:44.771Z,1021
2016-12-18T21:05:44.795Z,1020.93
2016-12-18T21:06:44.886Z,1020.97
2016-12-18T21:07:44.797Z,1020.92
2016-12-18T21:08:44.806Z,1020.9
2016-12-18T21:09:44.823Z,1020.96
2016-12-18T21:10:44.856Z,1020.92
2016-12-18T21:11:44.944Z,1020.94
2016-12-18T21:12:44.716Z,1020.87
2016-12-18T21:13:44.920Z,1020.93
2016-12-18T21:14:44.809Z,1020.9
2016-12-18T21:15:45.124Z,1020.92
2016-12-18T21:16:44.923Z,1020.9
2016-12-18T21:17:45.130Z,1020.92
2016-12-18T21:18:45.176Z,1020.92
2016-12-18T21:19:44.983Z,1020.93
2016-12-18T21:20:44.933Z,1020.89
2016-12-18T21:21:44.830Z,1020.9
2016-12-18T21:22:44.998Z,1020.9
2016-12-18T21:23:45.011Z,1020.85
2016-12-18T21:24:45.006Z,1020.86
2016-12-18T21:25:45.002Z,1020.88
2016-12-18T21:26:45.083Z,1020.89
2016-12-18T21:27:45.057Z,1020.89
2016-12-18T21:28:45.192Z,1020.9
2016-12-18T21:29:45.167Z,1020.87
2016-12-18T21:30:45.039Z,1020.84
2016-12-18T21:31:45.147Z,1020.8
2016-12-18T21:32:45.053Z,1020.8
2016-12-18T21:33:45.168Z,1020.8
2016-12-18T21:34:45.320Z,1020.83
2016-12-18T21:35:45.119Z,1020.84
2016-12-18T21:36:45.260Z,1020.87
2016-12-18T21:37:45.481Z,1020.89
2016-12-18T21:38:45.199Z,1020.89
2016-12-18T21:39:45.263Z,1020.88
2016-12-18T21:40:45.304Z,1020.86
2016-12-18T21:41:45.269Z,1020.87
2016-12-18T21:42:45.457Z,1020.84
2016-12-18T21:43:45.375Z,1020.84
2016-12-18T21:44:45.335Z,1020.83
2016-12-18T21:45:45.204Z,1020.8
2016-12-18T21:46:45.549Z,1020.81
2016-12-18T21:47:45.542Z,1020.84
2016-12-18T21:48:45.483Z,1020.83
2016-12-18T21:49:45.668Z,1020.81
2016-12-18T21:50:45.662Z,1020.82
2016-12-18T21:51:45.533Z,1020.81
2016-12-18T21:52:45.471Z,1020.82
2016-12-18T21:53:45.727Z,1020.79
2016-12-18T21:54:45.485Z,1020.82
2016-12-18T21:55:45.560Z,1020.78
2016-12-18T21:56:45.482Z,1020.76
2016-12-18T21:57:45.454Z,1020.81
2016-12-18T21:58:45.697Z,1020.89
2016-12-18T21:59:45.450Z,1020.85
2016-12-18T22:00:45.429Z,1020.88
2016-12-18T22:01:45.759Z,1020.84
2016-12-18T22:02:45.661Z,1020.81
2016-12-18T22:03:46.088Z,1020.79
2016-12-18T22:04:45.779Z,1020.79
2016-12-18T22:05:45.598Z,1020.8
2016-12-18T22:06:45.547Z,1020.79
2016-12-18T22:07:45.523Z,1020.78
2016-12-18T22:08:45.751Z,1020.79
2016-12-18T22:09:45.607Z,1020.74
2016-12-18T22:10:45.967Z,1020.73
2016-12-18T22:11:45.737Z,1020.71
2016-12-18T22:12:45.724Z,1020.74
2016-12-18T22:13:45.758Z,1020.75
2016-12-18T22:14:45.738Z,1020.73
2016-12-18T22:15:45.701Z,1020.69
2016-12-18T22:16:45.760Z,1020.66
2016-12-18T22:17:46.240Z,1020.65
2016-12-18T22:18:45.781Z,1020.63
2016-12-18T22:19:45.650Z,1020.67
2016-12-18T22:20:45.713Z,1020.65
2016-12-18T22:21:45.669Z,1020.66
2016-12-18T22:22:45.957Z,1020.63
2016-12-18T22:23:46.053Z,1020.65
2016-12-18T22:24:45.953Z,1020.67
2016-12-18T22:25:45.810Z,1020.64
2016-12-18T22:26:46.224Z,1020.62
2016-12-18T22:27:46.011Z,1020.58
2016-12-18T22:28:46.174Z,1020.6
2016-12-18T22:29:45.936Z,1020.57
2016-12-18T22:30:45.960Z,1020.57
2016-12-18T22:31:45.963Z,1020.58
2016-12-18T22:32:46.238Z,1020.55
2016-12-18T22:33:46.067Z,1020.55
2016-12-18T22:34:46.328Z,1020.55
2016-12-18T22:35:45.989Z,1020.52
2016-12-18T22:36:46.073Z,1020.56
2016-12-18T22:37:46.082Z,1020.52
2016-12-18T22:38:46.487Z,1020.54
2016-12-18T22:39:46.003Z,1020.49
2016-12-18T22:40:46.056Z,1020.49
2016-12-18T22:41:46.030Z,1020.5
2016-12-18T22:42:46.105Z,1020.52
2016-12-18T22:43:46.253Z,1020.51
2016-12-18T22:44:46.402Z,1020.54
2016-12-18T22:45:46.100Z,1020.56
2016-12-18T22:46:46.165Z,1020.59
2016-12-18T22:47:46.354Z,1020.54
2016-12-18T22:48:46.300Z,1020.58
2016-12-18T22:49:46.260Z,1020.58
2016-12-18T22:50:46.441Z,1020.58
2016-12-18T22:51:46.453Z,1020.55
2016-12-18T22:52:46.352Z,1020.55
2016-12-18T22:53:46.350Z,1020.53
2016-12-18T22:54:46.355Z,1020.54
2016-12-18T22:55:46.261Z,1020.53
2016-12-18T22:56:46.387Z,1020.56
2016-12-18T22:57:46.631Z,1020.54
2016-12-18T22:58:46.657Z,1020.51
2016-12-18T23:00:55.133Z,1020.55
2016-12-18T23:01:55.349Z,1020.59
2016-12-18T23:02:55.119Z,1020.53
2016-12-18T23:03:55.103Z,1020.56
2016-12-18T23:04:55.215Z,1020.54
2016-12-18T23:05:55.207Z,1020.49
2016-12-18T23:06:55.167Z,1020.51
2016-12-18T23:07:55.200Z,1020.51
2016-12-18T23:08:55.496Z,1020.49
2016-12-18T23:09:56.081Z,1020.49
2016-12-18T23:10:55.250Z,1020.51
2016-12-18T23:11:55.314Z,1020.48
2016-12-18T23:12:55.565Z,1020.47
2016-12-18T23:13:55.420Z,1020.47
2016-12-18T23:14:55.797Z,1020.45
2016-12-18T23:15:55.179Z,1020.48
2016-12-18T23:16:55.422Z,1020.47
2016-12-18T23:17:55.587Z,1020.48
2016-12-18T23:18:55.527Z,1020.49
2016-12-18T23:19:55.277Z,1020.49
2016-12-18T23:20:55.424Z,1020.5
2016-12-18T23:21:55.536Z,1020.48
2016-12-18T23:22:55.428Z,1020.51
2016-12-18T23:23:55.485Z,1020.49
2016-12-18T23:24:55.626Z,1020.52
2016-12-18T23:25:55.746Z,1020.54
2016-12-18T23:26:55.532Z,1020.58
2016-12-18T23:27:55.556Z,1020.59
2016-12-18T23:28:56.057Z,1020.63
2016-12-18T23:29:55.456Z,1020.64
2016-12-18T23:30:55.630Z,1020.62
2016-12-18T23:31:55.608Z,1020.64
2016-12-18T23:32:55.440Z,1020.65
2016-12-18T23:33:55.498Z,1020.69
2016-12-18T23:34:55.531Z,1020.67
2016-12-18T23:35:55.671Z,1020.67
2016-12-18T23:36:55.557Z,1020.71
2016-12-18T23:37:55.586Z,1020.72
2016-12-18T23:38:55.692Z,1020.71
2016-12-18T23:39:55.520Z,1020.71
2016-12-18T23:40:56.093Z,1020.68
2016-12-18T23:41:55.835Z,1020.65
2016-12-18T23:42:55.579Z,1020.66
2016-12-18T23:43:55.934Z,1020.67
2016-12-18T23:44:55.877Z,1020.69
2016-12-18T23:45:56.149Z,1020.72
2016-12-18T23:46:55.709Z,1020.71
2016-12-18T23:47:55.771Z,1020.72
2016-12-18T23:48:55.688Z,1020.71
2016-12-18T23:49:55.981Z,1020.7
2016-12-18T23:50:55.772Z,1020.69
2016-12-18T23:51:56.102Z,1020.7
2016-12-18T23:52:55.804Z,1020.71
2016-12-18T23:53:55.953Z,1020.76
2016-12-18T23:54:56.005Z,1020.72
2016-12-18T23:55:55.866Z,1020.78
2016-12-18T23:56:55.960Z,1020.73
2016-12-18T23:57:55.846Z,1020.75
2016-12-18T23:58:56.106Z,1020.77
2016-12-18T23:59:56.135Z,1020.73
